createdAt,value
2017-08-05T00:00:50.881Z,1007.29
2017-08-05T00:05:47.759Z,1007.17
2017-08-05T00:10:43.397Z,1007.20
2017-08-05T00:15:39.159Z,1007.22
2017-08-05T00:20:36.939Z,1007.14
2017-08-05T00:25:33.252Z,1007.14
2017-08-05T00:30:29.994Z,1007.05
2017-08-05T00:35:26.576Z,1007.04
2017-08-05T00:40:22.849Z,1007.05
2017-08-05T00:45:19.535Z,1007.01
2017-08-05T00:50:18.279Z,1007.06
2017-08-05T00:55:14.638Z,1007.03
2017-08-05T01:00:11.161Z,1007.11
2017-08-05T01:05:07.735Z,1006.97
2017-08-05T01:10:07.104Z,1006.99
2017-08-05T01:15:02.147Z,1007.15
2017-08-05T01:19:57.943Z,1006.99
2017-08-05T01:24:53.575Z,1006.98
2017-08-05T01:29:49.915Z,1007.13
2017-08-05T01:34:46.719Z,1007.09
2017-08-05T01:39:44.309Z,1006.99
2017-08-05T01:44:40.842Z,1006.85
2017-08-05T01:49:37.494Z,1006.83
2017-08-05T01:54:36.498Z,1006.89
2017-08-05T01:59:37.260Z,1007.18
2017-08-05T02:04:32.232Z,1006.99
2017-08-05T02:09:28.078Z,1007.02
2017-08-05T02:14:24.856Z,1007.12
2017-08-05T02:19:20.320Z,1007.04
2017-08-05T02:24:16.699Z,1007.06
2017-08-05T02:29:13.760Z,1007.02
2017-08-05T02:34:09.837Z,1007.20
2017-08-05T02:39:05.687Z,1007.20
2017-08-05T02:44:03.223Z,1007.11
2017-08-05T02:48:59.006Z,1007.16
2017-08-05T02:58:59.794Z,1007.23
2017-08-05T03:03:57.149Z,1007.15
2017-08-05T03:08:55.194Z,1007.03
2017-08-05T03:13:51.670Z,1007.10
2017-08-05T03:18:48.072Z,1007.08
2017-08-05T03:23:45.980Z,1007.00
2017-08-05T03:28:42.791Z,1007.06
2017-08-05T03:33:40.534Z,1006.88
2017-08-05T03:38:36.377Z,1006.87
2017-08-05T03:43:35.478Z,1007.02
2017-08-05T03:48:30.800Z,1006.96
2017-08-05T03:53:30.972Z,1006.78
2017-08-05T03:58:26.330Z,1006.77
2017-08-05T04:03:22.761Z,1006.78
2017-08-05T04:08:19.512Z,1006.88
2017-08-05T04:13:17.884Z,1006.79
2017-08-05T04:18:14.419Z,1006.81
2017-08-05T04:23:11.480Z,1006.90
2017-08-05T04:28:07.336Z,1006.99
2017-08-05T04:33:03.736Z,1006.95
2017-08-05T04:38:01.728Z,1006.99
2017-08-05T04:42:58.373Z,1007.00
2017-08-05T04:47:54.206Z,1007.05
2017-08-05T04:52:50.924Z,1007.00
2017-08-05T04:57:46.941Z,1006.97
2017-08-05T05:02:43.844Z,1006.83
2017-08-05T05:07:39.634Z,1006.94
2017-08-05T05:12:36.607Z,1006.81
2017-08-05T05:17:33.624Z,1006.70
2017-08-05T05:22:29.821Z,1006.76
2017-08-05T05:27:26.142Z,1006.75
2017-08-05T05:32:22.169Z,1006.78
2017-08-05T05:37:19.163Z,1006.84
2017-08-05T05:42:16.854Z,1006.87
2017-08-05T05:47:13.581Z,1006.94
2017-08-05T05:52:10.542Z,1006.97
2017-08-05T05:57:06.382Z,1007.11
2017-08-05T06:02:03.526Z,1007.00
2017-08-05T06:07:00.424Z,1006.99
2017-08-05T06:11:58.909Z,1006.90
2017-08-05T06:16:54.385Z,1006.96
2017-08-05T06:26:51.119Z,1006.67
2017-08-05T06:31:47.154Z,1006.46
2017-08-05T06:36:45.468Z,1006.35
2017-08-05T06:41:41.448Z,1006.55
2017-08-05T06:46:38.877Z,1006.86
2017-08-05T06:51:34.611Z,1007.28
2017-08-05T07:06:34.128Z,1006.89
2017-08-05T07:11:29.910Z,1006.95
2017-08-05T07:16:26.846Z,1006.91
2017-08-05T07:21:22.706Z,1007.00
2017-08-05T07:26:18.292Z,1007.01
2017-08-05T07:31:15.271Z,1006.87
2017-08-05T07:36:12.150Z,1006.74
2017-08-05T07:41:07.631Z,1006.88
2017-08-05T07:46:03.597Z,1007.02
2017-08-05T07:51:03.424Z,1007.20
2017-08-05T07:55:58.812Z,1007.01
2017-08-05T08:00:54.962Z,1006.91
2017-08-05T08:05:51.721Z,1006.83
2017-08-05T08:10:47.264Z,1006.94
2017-08-05T08:15:43.529Z,1006.92
2017-08-05T08:20:39.663Z,1006.89
2017-08-05T08:25:35.610Z,1006.73
2017-08-05T08:30:32.339Z,1006.64
2017-08-05T08:35:29.538Z,1006.70
2017-08-05T08:40:25.503Z,1006.76
2017-08-05T08:45:22.541Z,1006.83
2017-08-05T08:50:19.707Z,1006.69
2017-08-05T08:55:15.354Z,1006.77
2017-08-05T09:00:11.295Z,1006.84
2017-08-05T09:05:08.125Z,1006.60
2017-08-05T09:10:04.138Z,1006.51
2017-08-05T09:15:00.202Z,1006.91
2017-08-05T09:19:57.245Z,1006.75
2017-08-05T09:24:52.995Z,1006.78
2017-08-05T09:29:48.810Z,1006.80
2017-08-05T09:34:45.519Z,1006.84
2017-08-05T09:39:41.116Z,1006.84
2017-08-05T09:44:36.934Z,1006.74
2017-08-05T09:49:33.921Z,1006.98
2017-08-05T09:54:29.327Z,1007.15
2017-08-05T09:59:24.962Z,1007.14
2017-08-05T10:04:21.477Z,1007.20
2017-08-05T10:09:18.925Z,1007.14
2017-08-05T10:14:15.268Z,1007.15
2017-08-05T10:19:11.847Z,1007.17
2017-08-05T10:24:09.277Z,1007.07
2017-08-05T10:29:07.372Z,1007.30
2017-08-05T10:34:03.478Z,1007.28
2017-08-05T10:38:59.234Z,1007.26
2017-08-05T10:43:54.991Z,1007.00
2017-08-05T10:48:50.811Z,1006.92
2017-08-05T10:53:46.787Z,1007.01
2017-08-05T10:58:45.251Z,1007.10
2017-08-05T11:03:41.840Z,1007.06
2017-08-05T11:08:37.530Z,1007.19
2017-08-05T11:13:34.732Z,1007.24
2017-08-05T11:18:30.362Z,1007.34
2017-08-05T11:23:28.346Z,1007.33
2017-08-05T11:28:23.764Z,1007.37
2017-08-05T11:33:20.827Z,1007.35
2017-08-05T11:38:17.196Z,1006.91
2017-08-05T11:43:12.568Z,1007.20
2017-08-05T11:48:08.606Z,1007.39
2017-08-05T11:53:06.596Z,1007.30
2017-08-05T11:58:03.232Z,1007.38
2017-08-05T12:03:01.171Z,1007.20
2017-08-05T12:08:01.643Z,1007.26
2017-08-05T12:13:02.661Z,1007.16
2017-08-05T12:17:58.509Z,1007.18
2017-08-05T12:22:54.738Z,1007.29
2017-08-05T12:27:53.315Z,1007.22
2017-08-05T12:37:52.121Z,1007.24
2017-08-05T12:42:48.569Z,1007.18
2017-08-05T12:47:44.450Z,1007.18
2017-08-05T12:52:41.670Z,1007.15
2017-08-05T12:57:37.581Z,1007.11
2017-08-05T13:02:33.746Z,1007.18
2017-08-05T13:07:33.770Z,1007.18
2017-08-05T13:12:30.590Z,1007.30
2017-08-05T13:17:31.263Z,1007.29
2017-08-05T13:22:28.593Z,1007.33
2017-08-05T13:27:25.581Z,1007.31
2017-08-05T13:32:20.256Z,1007.40
2017-08-05T13:37:16.116Z,1007.39
2017-08-05T13:42:12.390Z,1007.40
2017-08-05T13:47:09.237Z,1007.50
2017-08-05T13:52:04.472Z,1007.54
2017-08-05T13:57:01.160Z,1007.51
2017-08-05T14:01:56.305Z,1007.63
2017-08-05T14:06:52.499Z,1007.61
2017-08-05T14:11:49.082Z,1007.90
2017-08-05T14:16:45.547Z,1008.13
2017-08-05T14:21:41.249Z,1008.14
2017-08-05T14:26:36.296Z,1008.22
2017-08-05T14:31:31.537Z,1008.39
2017-08-05T14:36:26.994Z,1008.34
2017-08-05T14:41:22.430Z,1008.46
2017-08-05T14:46:17.727Z,1008.67
2017-08-05T14:51:13.326Z,1008.63
2017-08-05T14:56:10.046Z,1008.57
2017-08-05T15:01:06.692Z,1008.55
2017-08-05T15:06:02.469Z,1008.52
2017-08-05T15:11:00.486Z,1008.51
2017-08-05T15:15:55.895Z,1008.44
2017-08-05T15:20:51.778Z,1008.54
2017-08-05T15:25:47.797Z,1008.58
2017-08-05T15:30:43.735Z,1008.55
2017-08-05T15:35:39.530Z,1008.68
2017-08-05T15:40:36.202Z,1008.60
2017-08-05T15:45:33.570Z,1008.61
2017-08-05T15:50:30.254Z,1008.75
2017-08-05T15:55:26.713Z,1008.72
2017-08-05T16:00:22.255Z,1008.75
2017-08-05T16:05:18.029Z,1008.80
2017-08-05T16:10:14.757Z,1008.74
2017-08-05T16:15:12.203Z,1008.88
2017-08-05T16:20:07.266Z,1008.83
2017-08-05T16:25:04.284Z,1008.94
2017-08-05T16:29:59.877Z,1009.02
2017-08-05T16:34:56.190Z,1008.90
2017-08-05T16:39:52.981Z,1009.03
2017-08-05T16:44:49.988Z,1009.06
2017-08-05T16:49:47.221Z,1009.04
2017-08-05T16:54:42.763Z,1009.08
2017-08-05T16:59:38.937Z,1009.13
2017-08-05T17:04:36.404Z,1009.17
2017-08-05T17:09:33.173Z,1009.36
2017-08-05T17:14:30.013Z,1009.31
2017-08-05T17:19:27.110Z,1009.32
2017-08-05T17:24:22.703Z,1009.30
2017-08-05T17:29:18.555Z,1009.40
2017-08-05T17:34:15.617Z,1009.44
2017-08-05T17:39:12.340Z,1009.46
2017-08-05T17:44:08.326Z,1009.49
2017-08-05T17:49:04.212Z,1009.54
2017-08-05T17:53:59.802Z,1009.49
2017-08-05T17:58:58.033Z,1009.61
2017-08-05T18:03:53.671Z,1009.69
2017-08-05T18:08:49.987Z,1009.64
2017-08-05T18:13:47.346Z,1009.67
2017-08-05T18:18:42.891Z,1009.70
2017-08-05T18:23:40.049Z,1009.73
2017-08-05T18:28:36.807Z,1009.87
2017-08-05T18:33:32.959Z,1009.99
2017-08-05T18:38:30.381Z,1009.99
2017-08-05T18:43:26.553Z,1010.08
2017-08-05T18:48:22.799Z,1010.21
2017-08-05T18:53:21.071Z,1010.28
2017-08-05T18:58:17.899Z,1010.35
2017-08-05T19:03:15.143Z,1010.47
2017-08-05T19:08:11.334Z,1010.42
2017-08-05T19:13:12.304Z,1010.58
2017-08-05T19:18:09.188Z,1010.62
2017-08-05T19:23:05.251Z,1010.59
2017-08-05T19:28:02.450Z,1010.65
2017-08-05T19:33:00.275Z,1010.66
2017-08-05T19:37:57.652Z,1010.63
2017-08-05T19:42:56.384Z,1010.70
2017-08-05T19:47:52.329Z,1010.62
2017-08-05T19:57:55.991Z,1010.98
2017-08-05T20:02:53.451Z,1010.96
2017-08-05T20:07:50.743Z,1011.02
2017-08-05T20:12:46.627Z,1011.05
2017-08-05T20:17:42.799Z,1011.07
2017-08-05T20:22:38.892Z,1011.05
2017-08-05T20:32:36.150Z,1011.25
2017-08-05T20:37:32.852Z,1011.35
2017-08-05T20:47:31.818Z,1011.49
2017-08-05T20:52:29.486Z,1011.51
2017-08-05T20:57:26.277Z,1011.56
2017-08-05T21:02:23.166Z,1011.39
2017-08-05T21:07:21.395Z,1011.30
2017-08-05T21:12:17.705Z,1011.40
2017-08-05T21:17:17.793Z,1011.48
2017-08-05T21:22:13.968Z,1011.56
2017-08-05T21:27:12.722Z,1011.52
2017-08-05T21:32:11.644Z,1011.62
2017-08-05T21:37:08.199Z,1011.71
2017-08-05T21:42:08.221Z,1011.64
2017-08-05T21:52:10.346Z,1011.54
2017-08-05T21:57:06.644Z,1011.58
2017-08-05T22:07:08.163Z,1011.66
2017-08-05T22:12:04.518Z,1011.70
2017-08-05T22:17:01.251Z,1011.66
2017-08-05T22:21:57.211Z,1011.80
2017-08-05T22:31:57.335Z,1011.89
2017-08-05T22:42:02.364Z,1012.04
2017-08-05T22:46:57.803Z,1012.00
2017-08-05T22:51:54.959Z,1012.07
2017-08-05T23:01:52.231Z,1012.10
2017-08-05T23:11:54.197Z,1012.22
2017-08-05T23:16:49.927Z,1012.27
2017-08-05T23:21:49.203Z,1012.41
2017-08-05T23:26:45.544Z,1012.38
2017-08-05T23:31:42.378Z,1012.41
2017-08-05T23:36:45.813Z,1012.46
2017-08-05T23:41:40.430Z,1012.60
2017-08-05T23:51:44.482Z,1012.58
2017-08-05T23:56:39.963Z,1012.63
